sensor_id;sensor_type;location;lat;lon;timestamp;pressure;altitude;pressure_sealevel;temperature;humidity
72959;BME280;60008;50.826;6.896;2023-08-31T00:01:31;100328.50;;;13.95;100.00
72959;BME280;60008;50.826;6.896;2023-08-31T00:04:24;100325.25;;;14.00;100.00
72959;BME280;60008;50.826;6.896;2023-08-31T00:07:09;100315.00;;;13.97;100.00
72959;BME280;60008;50.826;6.896;2023-08-31T00:10:02;100321.78;;;13.99;100.00
72959;BME280;60008;50.826;6.896;2023-08-31T00:13:04;100319.31;;;13.98;100.00
72959;BME280;60008;50.826;6.896;2023-08-31T00:15:51;100313.84;;;14.06;100.00
72959;BME280;60008;50.826;6.896;2023-08-31T00:18:42;100313.66;;;14.07;100.00
72959;BME280;60008;50.826;6.896;2023-08-31T00:21:29;100306.28;;;14.09;100.00
72959;BME280;60008;50.826;6.896;2023-08-31T00:24:21;100308.19;;;13.94;100.00
72959;BME280;60008;50.826;6.896;2023-08-31T00:27:13;100310.94;;;14.01;100.00
72959;BME280;60008;50.826;6.896;2023-08-31T00:30:07;100304.59;;;14.02;100.00
72959;BME280;60008;50.826;6.896;2023-08-31T00:32:59;100313.53;;;13.94;100.00
72959;BME280;60008;50.826;6.896;2023-08-31T00:35:54;100308.41;;;13.93;100.00
72959;BME280;60008;50.826;6.896;2023-08-31T00:38:47;100315.91;;;13.83;100.00
72959;BME280;60008;50.826;6.896;2023-08-31T00:41:32;100324.97;;;13.88;100.00
72959;BME280;60008;50.826;6.896;2023-08-31T00:44:23;100319.34;;;13.77;100.00
72959;BME280;60008;50.826;6.896;2023-08-31T00:47:09;100315.91;;;13.83;100.00
72959;BME280;60008;50.826;6.896;2023-08-31T00:50:01;100305.88;;;13.85;100.00
72959;BME280;60008;50.826;6.896;2023-08-31T00:52:47;100309.13;;;13.80;100.00
72959;BME280;60008;50.826;6.896;2023-08-31T00:55:38;100316.28;;;13.80;100.00
72959;BME280;60008;50.826;6.896;2023-08-31T00:58:24;100320.16;;;13.77;100.00
72959;BME280;60008;50.826;6.896;2023-08-31T01:01:29;100309.00;;;13.88;100.00
72959;BME280;60008;50.826;6.896;2023-08-31T01:08:30;100305.94;;;13.91;100.00
72959;BME280;60008;50.826;6.896;2023-08-31T01:11:45;100308.34;;;13.86;100.00
72959;BME280;60008;50.826;6.896;2023-08-31T01:14:45;100302.88;;;13.94;100.00
72959;BME280;60008;50.826;6.896;2023-08-31T01:17:57;100307.91;;;13.83;100.00
72959;BME280;60008;50.826;6.896;2023-08-31T01:23:57;100305.28;;;13.89;100.00
72959;BME280;60008;50.826;6.896;2023-08-31T01:26:51;100308.41;;;13.93;100.00
72959;BME280;60008;50.826;6.896;2023-08-31T01:29:37;100310.50;;;13.76;100.00
72959;BME280;60008;50.826;6.896;2023-08-31T01:32:28;100305.63;;;13.80;100.00
72959;BME280;60008;50.826;6.896;2023-08-31T01:35:16;100319.81;;;13.87;100.00
72959;BME280;60008;50.826;6.896;2023-08-31T01:38:10;100326.50;;;13.76;100.00
72959;BME280;60008;50.826;6.896;2023-08-31T01:41:01;100322.31;;;13.67;100.00
72959;BME280;60008;50.826;6.896;2023-08-31T01:43:55;100317.50;;;13.56;100.00
72959;BME280;60008;50.826;6.896;2023-08-31T01:46:41;100326.03;;;13.51;100.00
72959;BME280;60008;50.826;6.896;2023-08-31T01:49:39;100333.72;;;13.40;100.00
72959;BME280;60008;50.826;6.896;2023-08-31T01:52:24;100321.88;;;13.42;100.00
72959;BME280;60008;50.826;6.896;2023-08-31T01:55:15;100328.94;;;13.35;100.00
72959;BME280;60008;50.826;6.896;2023-08-31T01:58:01;100331.97;;;13.32;100.00
72959;BME280;60008;50.826;6.896;2023-08-31T02:00:59;100331.16;;;13.32;100.00
72959;BME280;60008;50.826;6.896;2023-08-31T02:03:58;100334.22;;;13.29;100.00
72959;BME280;60008;50.826;6.896;2023-08-31T02:06:43;100325.91;;;13.17;100.00
72959;BME280;60008;50.826;6.896;2023-08-31T02:09:35;100334.72;;;13.18;100.00
72959;BME280;60008;50.826;6.896;2023-08-31T02:12:20;100332.84;;;13.18;100.00
72959;BME280;60008;50.826;6.896;2023-08-31T02:15:12;100331.13;;;13.10;100.00
72959;BME280;60008;50.826;6.896;2023-08-31T02:18:05;100338.94;;;13.12;100.00
72959;BME280;60008;50.826;6.896;2023-08-31T02:20:52;100342.31;;;13.06;100.00
72959;BME280;60008;50.826;6.896;2023-08-31T02:23:43;100344.06;;;12.99;100.00
72959;BME280;60008;50.826;6.896;2023-08-31T02:26:29;100348.56;;;12.98;100.00
72959;BME280;60008;50.826;6.896;2023-08-31T02:29:21;100349.44;;;13.05;100.00
72959;BME280;60008;50.826;6.896;2023-08-31T02:32:06;100340.94;;;12.95;100.00
72959;BME280;60008;50.826;6.896;2023-08-31T02:34:57;100340.59;;;12.98;100.00
72959;BME280;60008;50.826;6.896;2023-08-31T02:37:42;100342.22;;;12.99;100.00
72959;BME280;60008;50.826;6.896;2023-08-31T02:40:34;100346.00;;;12.90;100.00
72959;BME280;60008;50.826;6.896;2023-08-31T02:43:19;100348.09;;;12.95;100.00
72959;BME280;60008;50.826;6.896;2023-08-31T02:46:11;100348.19;;;12.87;100.00
72959;BME280;60008;50.826;6.896;2023-08-31T02:48:55;100352.16;;;12.76;100.00
72959;BME280;60008;50.826;6.896;2023-08-31T02:51:47;100345.84;;;12.77;100.00
72959;BME280;60008;50.826;6.896;2023-08-31T02:54:34;100348.50;;;12.77;100.00
72959;BME280;60008;50.826;6.896;2023-08-31T02:57:26;100348.47;;;12.92;100.00
72959;BME280;60008;50.826;6.896;2023-08-31T03:00:11;100349.75;;;12.96;100.00
72959;BME280;60008;50.826;6.896;2023-08-31T03:03:11;100347.09;;;12.96;100.00
72959;BME280;60008;50.826;6.896;2023-08-31T03:05:56;100349.03;;;12.87;100.00
72959;BME280;60008;50.826;6.896;2023-08-31T03:08:48;100345.34;;;12.88;100.00
72959;BME280;60008;50.826;6.896;2023-08-31T03:11:33;100339.59;;;12.85;100.00
72959;BME280;60008;50.826;6.896;2023-08-31T03:14:24;100345.53;;;12.87;100.00
72959;BME280;60008;50.826;6.896;2023-08-31T03:17:11;100355.06;;;12.81;100.00
72959;BME280;60008;50.826;6.896;2023-08-31T03:20:02;100351.22;;;12.84;100.00
72959;BME280;60008;50.826;6.896;2023-08-31T03:22:50;100359.41;;;12.82;100.00
72959;BME280;60008;50.826;6.896;2023-08-31T03:25:42;100354.88;;;12.97;100.00
72959;BME280;60008;50.826;6.896;2023-08-31T03:28:27;100356.38;;;12.85;100.00
72959;BME280;60008;50.826;6.896;2023-08-31T03:31:19;100358.84;;;12.87;100.00
72959;BME280;60008;50.826;6.896;2023-08-31T03:34:04;100359.72;;;12.94;100.00
72959;BME280;60008;50.826;6.896;2023-08-31T03:36:55;100357.81;;;13.02;100.00
72959;BME280;60008;50.826;6.896;2023-08-31T03:39:40;100359.56;;;12.81;100.00
72959;BME280;60008;50.826;6.896;2023-08-31T03:42:34;100358.75;;;12.95;100.00
72959;BME280;60008;50.826;6.896;2023-08-31T03:45:22;100349.13;;;13.08;100.00
72959;BME280;60008;50.826;6.896;2023-08-31T03:48:13;100352.25;;;13.12;100.00
72959;BME280;60008;50.826;6.896;2023-08-31T03:50:58;100354.25;;;13.10;100.00
72959;BME280;60008;50.826;6.896;2023-08-31T03:53:49;100342.97;;;13.08;100.00
72959;BME280;60008;50.826;6.896;2023-08-31T03:56:35;100350.13;;;13.07;100.00
72959;BME280;60008;50.826;6.896;2023-08-31T03:59:26;100348.75;;;13.11;100.00
72959;BME280;60008;50.826;6.896;2023-08-31T04:02:11;100349.13;;;13.08;100.00
72959;BME280;60008;50.826;6.896;2023-08-31T04:05:17;100349.66;;;13.04;100.00
72959;BME280;60008;50.826;6.896;2023-08-31T04:08:03;100355.50;;;12.99;100.00
72959;BME280;60008;50.826;6.896;2023-08-31T04:10:54;100368.81;;;12.99;100.00
72959;BME280;60008;50.826;6.896;2023-08-31T04:13:39;100365.78;;;13.02;100.00
72959;BME280;60008;50.826;6.896;2023-08-31T04:16:31;100365.34;;;12.99;100.00
72959;BME280;60008;50.826;6.896;2023-08-31T04:19:16;100378.81;;;12.97;100.00
72959;BME280;60008;50.826;6.896;2023-08-31T04:22:08;100373.50;;;12.97;100.00
72959;BME280;60008;50.826;6.896;2023-08-31T04:24:59;100380.31;;;12.71;100.00
72959;BME280;60008;50.826;6.896;2023-08-31T04:27:44;100374.06;;;12.64;100.00
72959;BME280;60008;50.826;6.896;2023-08-31T04:30:36;100388.53;;;12.61;100.00
72959;BME280;60008;50.826;6.896;2023-08-31T04:33:29;100383.50;;;12.51;100.00
72959;BME280;60008;50.826;6.896;2023-08-31T04:36:14;100384.75;;;12.55;100.00
72959;BME280;60008;50.826;6.896;2023-08-31T04:39:05;100386.78;;;12.53;100.00
72959;BME280;60008;50.826;6.896;2023-08-31T04:41:52;100391.66;;;12.50;100.00
72959;BME280;60008;50.826;6.896;2023-08-31T04:44:45;100400.63;;;12.49;100.00
72959;BME280;60008;50.826;6.896;2023-08-31T04:47:30;100398.06;;;12.41;100.00
72959;BME280;60008;50.826;6.896;2023-08-31T04:50:21;100399.53;;;12.43;100.00
72959;BME280;60008;50.826;6.896;2023-08-31T04:53:06;100399.53;;;12.43;100.00
72959;BME280;60008;50.826;6.896;2023-08-31T04:55:59;100399.63;;;12.50;100.00
72959;BME280;60008;50.826;6.896;2023-08-31T04:58:44;100404.00;;;12.43;100.00
72959;BME280;60008;50.826;6.896;2023-08-31T05:01:35;100404.75;;;12.51;100.00
72959;BME280;60008;50.826;6.896;2023-08-31T05:04:26;100409.44;;;12.49;100.00
72959;BME280;60008;50.826;6.896;2023-08-31T05:07:25;100415.75;;;12.48;100.00
72959;BME280;60008;50.826;6.896;2023-08-31T05:10:10;100415.28;;;12.45;100.00
72959;BME280;60008;50.826;6.896;2023-08-31T05:13:01;100426.84;;;12.52;100.00
72959;BME280;60008;50.826;6.896;2023-08-31T05:15:47;100429.16;;;12.55;100.00
72959;BME280;60008;50.826;6.896;2023-08-31T05:18:38;100438.50;;;12.51;100.00
72959;BME280;60008;50.826;6.896;2023-08-31T05:21:25;100432.25;;;12.44;100.00
72959;BME280;60008;50.826;6.896;2023-08-31T05:24:17;100437.00;;;12.48;100.00
72959;BME280;60008;50.826;6.896;2023-08-31T05:27:09;100443.53;;;12.46;100.00
72959;BME280;60008;50.826;6.896;2023-08-31T05:29:54;100445.63;;;12.50;100.00
72959;BME280;60008;50.826;6.896;2023-08-31T05:32:45;100445.47;;;12.52;100.00
72959;BME280;60008;50.826;6.896;2023-08-31T05:35:30;100447.94;;;12.53;100.00
72959;BME280;60008;50.826;6.896;2023-08-31T05:38:22;100449.31;;;12.64;100.00
72959;BME280;60008;50.826;6.896;2023-08-31T05:41:15;100446.84;;;12.63;100.00
72959;BME280;60008;50.826;6.896;2023-08-31T05:44:00;100450.72;;;12.75;100.00
72959;BME280;60008;50.826;6.896;2023-08-31T05:46:51;100454.41;;;12.74;100.00
72959;BME280;60008;50.826;6.896;2023-08-31T05:49:36;100456.03;;;12.75;100.00
72959;BME280;60008;50.826;6.896;2023-08-31T05:52:27;100459.00;;;12.80;100.00
72959;BME280;60008;50.826;6.896;2023-08-31T05:55:13;100461.09;;;12.84;100.00
72959;BME280;60008;50.826;6.896;2023-08-31T05:58:04;100460.47;;;12.82;100.00
72959;BME280;60008;50.826;6.896;2023-08-31T06:00:50;100457.53;;;12.92;100.00
72959;BME280;60008;50.826;6.896;2023-08-31T06:03:49;100458.06;;;13.02;100.00
72959;BME280;60008;50.826;6.896;2023-08-31T06:06:34;100453.78;;;13.01;100.00
72959;BME280;60008;50.826;6.896;2023-08-31T06:09:25;100457.66;;;13.13;100.00
72959;BME280;60008;50.826;6.896;2023-08-31T06:12:10;100464.81;;;13.13;100.00
72959;BME280;60008;50.826;6.896;2023-08-31T06:15:01;100462.97;;;13.28;100.00
72959;BME280;60008;50.826;6.896;2023-08-31T06:17:55;100473.53;;;13.36;100.00
72959;BME280;60008;50.826;6.896;2023-08-31T06:20:42;100472.69;;;13.50;100.00
72959;BME280;60008;50.826;6.896;2023-08-31T06:23:33;100474.16;;;13.52;100.00
72959;BME280;60008;50.826;6.896;2023-08-31T06:26:24;100472.84;;;13.48;100.00
72959;BME280;60008;50.826;6.896;2023-08-31T06:29:09;100471.06;;;13.70;100.00
72959;BME280;60008;50.826;6.896;2023-08-31T06:32:02;100478.56;;;13.81;100.00
72959;BME280;60008;50.826;6.896;2023-08-31T06:34:47;100475.53;;;13.84;100.00
72959;BME280;60008;50.826;6.896;2023-08-31T06:37:39;100478.41;;;13.83;100.00
72959;BME280;60008;50.826;6.896;2023-08-31T06:40:24;100480.31;;;13.89;100.00
72959;BME280;60008;50.826;6.896;2023-08-31T06:43:17;100479.88;;;14.06;100.00
72959;BME280;60008;50.826;6.896;2023-08-31T06:46:02;100483.06;;;14.16;100.00
72959;BME280;60008;50.826;6.896;2023-08-31T06:49:08;100480.25;;;14.24;100.00
72959;BME280;60008;50.826;6.896;2023-08-31T06:51:55;100476.16;;;14.43;100.00
72959;BME280;60008;50.826;6.896;2023-08-31T06:54:46;100478.81;;;14.64;100.00
72959;BME280;60008;50.826;6.896;2023-08-31T06:57:32;100477.88;;;14.51;100.00
72959;BME280;60008;50.826;6.896;2023-08-31T07:00:24;100477.94;;;14.36;100.00
72959;BME280;60008;50.826;6.896;2023-08-31T07:03:09;100477.19;;;14.42;100.00
72959;BME280;60008;50.826;6.896;2023-08-31T07:06:11;100481.25;;;14.38;100.00
72959;BME280;60008;50.826;6.896;2023-08-31T07:08:56;100474.25;;;14.58;100.00
72959;BME280;60008;50.826;6.896;2023-08-31T07:11:48;100478.91;;;14.50;100.00
72959;BME280;60008;50.826;6.896;2023-08-31T07:14:33;100476.84;;;14.52;100.00
72959;BME280;60008;50.826;6.896;2023-08-31T07:17:24;100487.63;;;14.65;100.00
72959;BME280;60008;50.826;6.896;2023-08-31T07:20:11;100491.22;;;14.78;100.00
72959;BME280;60008;50.826;6.896;2023-08-31T07:23:03;100488.56;;;14.78;100.00
72959;BME280;60008;50.826;6.896;2023-08-31T07:25:49;100494.63;;;14.94;100.00
72959;BME280;60008;50.826;6.896;2023-08-31T07:28:40;100489.38;;;15.07;100.00
72959;BME280;60008;50.826;6.896;2023-08-31T07:31:25;100492.34;;;15.18;100.00
72959;BME280;60008;50.826;6.896;2023-08-31T07:34:16;100488.97;;;15.44;100.00
72959;BME280;60008;50.826;6.896;2023-08-31T07:37:09;100491.72;;;15.51;100.00
72959;BME280;60008;50.826;6.896;2023-08-31T07:39:54;100503.88;;;15.60;100.00
72959;BME280;60008;50.826;6.896;2023-08-31T07:42:45;100496.09;;;15.71;100.00
72959;BME280;60008;50.826;6.896;2023-08-31T07:45:30;100498.63;;;15.86;100.00
72959;BME280;60008;50.826;6.896;2023-08-31T07:48:23;100502.75;;;15.88;100.00
72959;BME280;60008;50.826;6.896;2023-08-31T07:51:08;100503.59;;;15.95;100.00
72959;BME280;60008;50.826;6.896;2023-08-31T07:54:00;100512.53;;;16.22;100.00
72959;BME280;60008;50.826;6.896;2023-08-31T07:56:45;100507.78;;;16.24;100.00
72959;BME280;60008;50.826;6.896;2023-08-31T07:59:37;100512.31;;;16.37;100.00
72959;BME280;60008;50.826;6.896;2023-08-31T08:02:37;100517.56;;;16.71;100.00
72959;BME280;60008;50.826;6.896;2023-08-31T08:05:35;100509.72;;;16.83;100.00
72959;BME280;60008;50.826;6.896;2023-08-31T08:08:27;100512.41;;;16.96;100.00
72959;BME280;60008;50.826;6.896;2023-08-31T08:11:22;100505.16;;;17.22;100.00
72959;BME280;60008;50.826;6.896;2023-08-31T08:14:22;100512.13;;;17.23;100.00
72959;BME280;60008;50.826;6.896;2023-08-31T08:17:14;100516.50;;;16.72;100.00
72959;BME280;60008;50.826;6.896;2023-08-31T08:20:06;100517.94;;;16.88;100.00
72959;BME280;60008;50.826;6.896;2023-08-31T08:22:58;100526.81;;;16.75;100.00
72959;BME280;60008;50.826;6.896;2023-08-31T08:25:51;100524.75;;;17.03;100.00
72959;BME280;60008;50.826;6.896;2023-08-31T08:28:42;100512.44;;;19.41;100.00
72959;BME280;60008;50.826;6.896;2023-08-31T08:31:27;100518.25;;;20.22;100.00
72959;BME280;60008;50.826;6.896;2023-08-31T08:34:20;100518.50;;;18.93;100.00
72959;BME280;60008;50.826;6.896;2023-08-31T08:37:05;100522.59;;;20.23;100.00
72959;BME280;60008;50.826;6.896;2023-08-31T08:39:56;100511.63;;;21.59;100.00
72959;BME280;60008;50.826;6.896;2023-08-31T08:42:43;100509.16;;;23.20;98.20
72959;BME280;60008;50.826;6.896;2023-08-31T08:45:38;100516.94;;;21.93;99.82
72959;BME280;60008;50.826;6.896;2023-08-31T08:48:36;100518.66;;;23.61;96.85
72959;BME280;60008;50.826;6.896;2023-08-31T08:51:23;100509.88;;;24.19;86.89
72959;BME280;60008;50.826;6.896;2023-08-31T08:54:15;100514.69;;;23.30;95.19
72959;BME280;60008;50.826;6.896;2023-08-31T08:57:00;100520.28;;;22.57;95.16
72959;BME280;60008;50.826;6.896;2023-08-31T08:59:52;100525.34;;;22.53;93.24
72959;BME280;60008;50.826;6.896;2023-08-31T09:02:37;100524.09;;;22.89;96.13
72959;BME280;60008;50.826;6.896;2023-08-31T09:05:31;100525.00;;;22.33;90.53
72959;BME280;60008;50.826;6.896;2023-08-31T09:08:16;100532.41;;;24.24;82.07
72959;BME280;60008;50.826;6.896;2023-08-31T09:11:08;100526.03;;;22.94;88.92
72959;BME280;60008;50.826;6.896;2023-08-31T09:13:56;100529.78;;;23.64;89.57
72959;BME280;60008;50.826;6.896;2023-08-31T09:16:50;100522.88;;;23.52;86.45
72959;BME280;60008;50.826;6.896;2023-08-31T09:19:36;100521.44;;;22.61;93.60
72959;BME280;60008;50.826;6.896;2023-08-31T09:22:27;100525.53;;;20.63;100.00
72959;BME280;60008;50.826;6.896;2023-08-31T09:25:13;100538.84;;;20.99;100.00
72959;BME280;60008;50.826;6.896;2023-08-31T09:28:05;100525.25;;;21.52;100.00
72959;BME280;60008;50.826;6.896;2023-08-31T09:31:08;100534.03;;;19.52;100.00
72959;BME280;60008;50.826;6.896;2023-08-31T09:33:54;100537.56;;;18.85;100.00
72959;BME280;60008;50.826;6.896;2023-08-31T09:36:46;100527.16;;;18.39;100.00
72959;BME280;60008;50.826;6.896;2023-08-31T09:39:37;100545.09;;;18.70;100.00
72959;BME280;60008;50.826;6.896;2023-08-31T09:42:38;100538.72;;;18.71;100.00
72959;BME280;60008;50.826;6.896;2023-08-31T09:45:31;100533.16;;;19.16;100.00
72959;BME280;60008;50.826;6.896;2023-08-31T09:48:31;100535.16;;;19.99;100.00
72959;BME280;60008;50.826;6.896;2023-08-31T09:51:17;100537.97;;;20.04;100.00
72959;BME280;60008;50.826;6.896;2023-08-31T09:54:16;100536.00;;;20.11;100.00
72959;BME280;60008;50.826;6.896;2023-08-31T09:57:02;100539.88;;;20.87;100.00
72959;BME280;60008;50.826;6.896;2023-08-31T09:59:54;100540.19;;;20.26;100.00
72959;BME280;60008;50.826;6.896;2023-08-31T10:02:39;100537.34;;;18.87;100.00
72959;BME280;60008;50.826;6.896;2023-08-31T10:05:31;100540.16;;;19.17;100.00
72959;BME280;60008;50.826;6.896;2023-08-31T10:08:18;100537.69;;;19.76;100.00
72959;BME280;60008;50.826;6.896;2023-08-31T10:11:10;100546.22;;;21.04;100.00
72959;BME280;60008;50.826;6.896;2023-08-31T10:13:58;100544.38;;;19.31;100.00
72959;BME280;60008;50.826;6.896;2023-08-31T10:16:50;100546.13;;;21.33;100.00
72959;BME280;60008;50.826;6.896;2023-08-31T10:19:38;100537.81;;;21.35;100.00
72959;BME280;60008;50.826;6.896;2023-08-31T10:22:31;100534.41;;;22.92;89.03
72959;BME280;60008;50.826;6.896;2023-08-31T10:25:16;100542.97;;;21.36;92.23
72959;BME280;60008;50.826;6.896;2023-08-31T10:28:23;100546.91;;;20.16;100.00
72959;BME280;60008;50.826;6.896;2023-08-31T10:31:10;100547.53;;;21.48;99.02
72959;BME280;60008;50.826;6.896;2023-08-31T10:34:07;100549.97;;;21.03;99.94
72959;BME280;60008;50.826;6.896;2023-08-31T10:36:55;100555.88;;;20.29;100.00
72959;BME280;60008;50.826;6.896;2023-08-31T10:40:09;100550.69;;;22.08;98.54
72959;BME280;60008;50.826;6.896;2023-08-31T10:43:14;100563.00;;;21.06;100.00
72959;BME280;60008;50.826;6.896;2023-08-31T10:46:16;100555.19;;;19.67;100.00
72959;BME280;60008;50.826;6.896;2023-08-31T10:49:13;100562.00;;;20.17;100.00
72959;BME280;60008;50.826;6.896;2023-08-31T10:52:18;100556.81;;;19.50;100.00
72959;BME280;60008;50.826;6.896;2023-08-31T10:55:26;100547.19;;;19.79;100.00
72959;BME280;60008;50.826;6.896;2023-08-31T10:58:31;100551.25;;;20.47;100.00
72959;BME280;60008;50.826;6.896;2023-08-31T11:01:50;100541.47;;;22.04;100.00
72959;BME280;60008;50.826;6.896;2023-08-31T11:04:54;100535.78;;;23.66;93.34
72959;BME280;60008;50.826;6.896;2023-08-31T11:07:47;100522.03;;;23.95;90.13
72959;BME280;60008;50.826;6.896;2023-08-31T11:10:39;100515.75;;;22.01;99.85
72959;BME280;60008;50.826;6.896;2023-08-31T11:13:24;100520.78;;;24.24;95.97
72959;BME280;60008;50.826;6.896;2023-08-31T11:16:15;100524.31;;;23.81;93.29
72959;BME280;60008;50.826;6.896;2023-08-31T11:19:03;100535.13;;;21.35;100.00
72959;BME280;60008;50.826;6.896;2023-08-31T11:21:56;100531.94;;;21.03;96.77
72959;BME280;60008;50.826;6.896;2023-08-31T11:24:41;100522.63;;;22.20;99.81
72959;BME280;60008;50.826;6.896;2023-08-31T11:27:35;100520.66;;;20.30;100.00
72959;BME280;60008;50.826;6.896;2023-08-31T11:30:30;100530.91;;;19.74;100.00
72959;BME280;60008;50.826;6.896;2023-08-31T11:33:18;100536.88;;;19.15;100.00
72959;BME280;60008;50.826;6.896;2023-08-31T11:36:10;100542.00;;;18.98;100.00
72959;BME280;60008;50.826;6.896;2023-08-31T11:39:05;100569.88;;;18.34;100.00
72959;BME280;60008;50.826;6.896;2023-08-31T11:41:53;100587.97;;;17.04;100.00
72959;BME280;60008;50.826;6.896;2023-08-31T11:44:52;100598.13;;;16.42;100.00
72959;BME280;60008;50.826;6.896;2023-08-31T11:47:39;100600.63;;;16.43;100.00
72959;BME280;60008;50.826;6.896;2023-08-31T11:50:31;100588.19;;;16.16;100.00
72959;BME280;60008;50.826;6.896;2023-08-31T11:53:16;100575.09;;;16.47;100.00
72959;BME280;60008;50.826;6.896;2023-08-31T11:56:08;100572.31;;;17.08;100.00
72959;BME280;60008;50.826;6.896;2023-08-31T11:58:55;100555.38;;;17.40;100.00
72959;BME280;60008;50.826;6.896;2023-08-31T12:01:49;100573.78;;;17.04;100.00
72959;BME280;60008;50.826;6.896;2023-08-31T12:04:49;100558.94;;;17.08;100.00
72959;BME280;60008;50.826;6.896;2023-08-31T12:07:41;100567.16;;;16.93;100.00
72959;BME280;60008;50.826;6.896;2023-08-31T12:10:31;100566.31;;;16.80;100.00
72959;BME280;60008;50.826;6.896;2023-08-31T12:13:29;100566.53;;;16.65;100.00
72959;BME280;60008;50.826;6.896;2023-08-31T12:16:15;100567.97;;;16.61;100.00
72959;BME280;60008;50.826;6.896;2023-08-31T12:19:09;100579.72;;;16.86;100.00
72959;BME280;60008;50.826;6.896;2023-08-31T12:21:54;100573.34;;;16.87;100.00
72959;BME280;60008;50.826;6.896;2023-08-31T12:24:47;100583.22;;;17.13;100.00
72959;BME280;60008;50.826;6.896;2023-08-31T12:27:35;100566.94;;;17.01;100.00
72959;BME280;60008;50.826;6.896;2023-08-31T12:30:27;100572.31;;;17.01;100.00
72959;BME280;60008;50.826;6.896;2023-08-31T12:33:15;100575.81;;;17.08;100.00
72959;BME280;60008;50.826;6.896;2023-08-31T12:36:07;100580.53;;;17.33;100.00
72959;BME280;60008;50.826;6.896;2023-08-31T12:38:59;100559.91;;;17.40;100.00
72959;BME280;60008;50.826;6.896;2023-08-31T12:41:52;100544.66;;;17.47;100.00
72959;BME280;60008;50.826;6.896;2023-08-31T12:45:04;100538.03;;;17.62;100.00
72959;BME280;60008;50.826;6.896;2023-08-31T12:48:02;100537.16;;;17.75;100.00
72959;BME280;60008;50.826;6.896;2023-08-31T12:50:49;100529.09;;;18.57;100.00
72959;BME280;60008;50.826;6.896;2023-08-31T12:53:44;100526.03;;;18.78;100.00
72959;BME280;60008;50.826;6.896;2023-08-31T12:56:30;100523.53;;;18.83;100.00
72959;BME280;60008;50.826;6.896;2023-08-31T12:59:23;100525.56;;;18.63;100.00
72959;BME280;60008;50.826;6.896;2023-08-31T13:02:07;100526.03;;;18.78;100.00
72959;BME280;60008;50.826;6.896;2023-08-31T13:05:04;100520.31;;;18.75;100.00
72959;BME280;60008;50.826;6.896;2023-08-31T13:08:14;100521.56;;;18.72;100.00
72959;BME280;60008;50.826;6.896;2023-08-31T13:10:59;100530.16;;;18.56;100.00
72959;BME280;60008;50.826;6.896;2023-08-31T13:13:51;100530.69;;;18.33;100.00
72959;BME280;60008;50.826;6.896;2023-08-31T13:16:36;100525.28;;;18.71;100.00
72959;BME280;60008;50.826;6.896;2023-08-31T13:19:33;100525.78;;;18.86;100.00
72959;BME280;60008;50.826;6.896;2023-08-31T13:22:19;100532.94;;;18.68;100.00
72959;BME280;60008;50.826;6.896;2023-08-31T13:25:11;100524.25;;;18.72;100.00
72959;BME280;60008;50.826;6.896;2023-08-31T13:27:57;100524.06;;;18.92;100.00
72959;BME280;60008;50.826;6.896;2023-08-31T13:30:55;100529.44;;;18.92;100.00
72959;BME280;60008;50.826;6.896;2023-08-31T13:33:41;100522.75;;;19.01;100.00
72959;BME280;60008;50.826;6.896;2023-08-31T13:36:34;100513.28;;;19.59;100.00
72959;BME280;60008;50.826;6.896;2023-08-31T13:39:26;100507.97;;;19.71;100.00
72959;BME280;60008;50.826;6.896;2023-08-31T13:42:23;100515.88;;;20.14;100.00
72959;BME280;60008;50.826;6.896;2023-08-31T13:45:10;100505.09;;;20.02;100.00
72959;BME280;60008;50.826;6.896;2023-08-31T13:48:02;100506.84;;;19.79;100.00
72959;BME280;60008;50.826;6.896;2023-08-31T13:50:49;100505.31;;;19.53;100.00
72959;BME280;60008;50.826;6.896;2023-08-31T13:53:41;100513.78;;;19.86;100.00
72959;BME280;60008;50.826;6.896;2023-08-31T13:56:29;100513.41;;;19.83;100.00
72959;BME280;60008;50.826;6.896;2023-08-31T13:59:21;100504.03;;;19.55;100.00
72959;BME280;60008;50.826;6.896;2023-08-31T14:02:07;100513.63;;;19.27;100.00
72959;BME280;60008;50.826;6.896;2023-08-31T14:05:07;100516.75;;;19.24;100.00
72959;BME280;60008;50.826;6.896;2023-08-31T14:08:00;100511.56;;;19.04;100.00
72959;BME280;60008;50.826;6.896;2023-08-31T14:10:49;100515.91;;;19.05;100.00
72959;BME280;60008;50.826;6.896;2023-08-31T14:13:48;100508.75;;;19.35;100.00
72959;BME280;60008;50.826;6.896;2023-08-31T14:16:36;100511.56;;;19.83;100.00
72959;BME280;60008;50.826;6.896;2023-08-31T14:19:32;100496.69;;;19.81;100.00
72959;BME280;60008;50.826;6.896;2023-08-31T14:22:18;100496.81;;;19.86;100.00
72959;BME280;60008;50.826;6.896;2023-08-31T14:25:10;100495.59;;;19.70;100.00
72959;BME280;60008;50.826;6.896;2023-08-31T14:28:01;100498.94;;;19.47;100.00
72959;BME280;60008;50.826;6.896;2023-08-31T14:30:53;100500.09;;;19.33;100.00
72959;BME280;60008;50.826;6.896;2023-08-31T14:33:38;100497.66;;;19.68;100.00
72959;BME280;60008;50.826;6.896;2023-08-31T14:36:35;100496.25;;;19.47;100.00
72959;BME280;60008;50.826;6.896;2023-08-31T14:39:21;100498.41;;;19.39;100.00
72959;BME280;60008;50.826;6.896;2023-08-31T14:42:12;100506.63;;;19.44;100.00
72959;BME280;60008;50.826;6.896;2023-08-31T14:44:59;100507.06;;;19.41;100.00
72959;BME280;60008;50.826;6.896;2023-08-31T14:47:55;100509.66;;;19.54;100.00
72959;BME280;60008;50.826;6.896;2023-08-31T14:50:49;100504.97;;;19.79;100.00